sensor_id;sensor_type;location;lat;lon;timestamp;pressure;altitude;pressure_sealevel;temperature;humidity
74228;BME280;62587;52.352;5.006;2022-09-09T00:04:40;100658.50;;;27.12;47.52
74228;BME280;62587;52.352;5.006;2022-09-09T00:07:21;100665.56;;;27.13;47.31
74228;BME280;62587;52.352;5.006;2022-09-09T00:12:31;100649.44;;;27.13;47.35
74228;BME280;62587;52.352;5.006;2022-09-09T00:15:07;100652.13;;;27.13;47.32
74228;BME280;62587;52.352;5.006;2022-09-09T00:17:59;100649.59;;;27.12;47.15
74228;BME280;62587;52.352;5.006;2022-09-09T00:20:32;100639.84;;;27.11;46.97
74228;BME280;62587;52.352;5.006;2022-09-09T00:23:05;100644.19;;;27.12;47.04
74228;BME280;62587;52.352;5.006;2022-09-09T00:25:59;100646.91;;;27.12;46.80
74228;BME280;62587;52.352;5.006;2022-09-09T00:28:28;100646.03;;;27.11;47.00
74228;BME280;62587;52.352;5.006;2022-09-09T00:31:04;100637.97;;;27.11;46.82
74228;BME280;62587;52.352;5.006;2022-09-09T00:33:34;100636.13;;;27.12;46.76
74228;BME280;62587;52.352;5.006;2022-09-09T00:36:00;100633.44;;;27.12;46.49
74228;BME280;62587;52.352;5.006;2022-09-09T00:38:32;100639.69;;;27.12;46.48
74228;BME280;62587;52.352;5.006;2022-09-09T00:41:05;100643.34;;;27.11;46.44
74228;BME280;62587;52.352;5.006;2022-09-09T00:43:39;100633.06;;;27.07;46.33
74228;BME280;62587;52.352;5.006;2022-09-09T00:51:39;100642.19;;;27.14;46.22
74228;BME280;62587;52.352;5.006;2022-09-09T00:54:48;100638.53;;;27.15;46.32
74228;BME280;62587;52.352;5.006;2022-09-09T00:57:23;100638.69;;;27.13;46.49
74228;BME280;62587;52.352;5.006;2022-09-09T01:02:55;100637.66;;;27.14;46.10
74228;BME280;62587;52.352;5.006;2022-09-09T01:05:43;100637.84;;;27.13;46.36
74228;BME280;62587;52.352;5.006;2022-09-09T01:08:32;100635.84;;;27.15;46.39
74228;BME280;62587;52.352;5.006;2022-09-09T01:11:01;100627.78;;;27.15;46.23
74228;BME280;62587;52.352;5.006;2022-09-09T01:13:33;100618.00;;;27.14;46.13
74228;BME280;62587;52.352;5.006;2022-09-09T01:16:03;100623.38;;;27.14;46.30
74228;BME280;62587;52.352;5.006;2022-09-09T01:18:32;100636.69;;;27.15;46.22
74228;BME280;62587;52.352;5.006;2022-09-09T01:21:41;100635.84;;;27.15;46.13
74228;BME280;62587;52.352;5.006;2022-09-09T01:26:59;100635.84;;;27.15;45.91
74228;BME280;62587;52.352;5.006;2022-09-09T01:29:26;100639.38;;;27.15;45.84
74228;BME280;62587;52.352;5.006;2022-09-09T01:31:55;100634.00;;;27.15;46.25
74228;BME280;62587;52.352;5.006;2022-09-09T01:34:23;100624.91;;;27.16;45.85
74228;BME280;62587;52.352;5.006;2022-09-09T01:39:15;100621.22;;;27.17;45.99
74228;BME280;62587;52.352;5.006;2022-09-09T01:41:41;100612.31;;;27.17;45.69
74228;BME280;62587;52.352;5.006;2022-09-09T01:44:07;100625.09;;;27.15;46.00
74228;BME280;62587;52.352;5.006;2022-09-09T01:46:32;100629.31;;;27.17;46.07
74228;BME280;62587;52.352;5.006;2022-09-09T01:48:58;100622.22;;;27.16;45.71
74228;BME280;62587;52.352;5.006;2022-09-09T01:51:26;100617.03;;;27.15;45.63
74228;BME280;62587;52.352;5.006;2022-09-09T01:53:51;100616.03;;;27.16;45.83
74228;BME280;62587;52.352;5.006;2022-09-09T02:01:57;100607.97;;;27.16;45.64
74228;BME280;62587;52.352;5.006;2022-09-09T02:04:47;100607.13;;;27.15;45.89
74228;BME280;62587;52.352;5.006;2022-09-09T02:07:25;100606.25;;;27.15;45.63
74228;BME280;62587;52.352;5.006;2022-09-09T02:10:02;100597.22;;;27.16;46.00
74228;BME280;62587;52.352;5.006;2022-09-09T02:12:30;100603.56;;;27.15;45.53
74228;BME280;62587;52.352;5.006;2022-09-09T02:15:05;100600.03;;;27.14;45.78
74228;BME280;62587;52.352;5.006;2022-09-09T02:17:36;100600.88;;;27.15;45.60
74228;BME280;62587;52.352;5.006;2022-09-09T02:20:10;100596.38;;;27.15;45.73
74228;BME280;62587;52.352;5.006;2022-09-09T02:22:38;100594.53;;;27.16;45.36
74228;BME280;62587;52.352;5.006;2022-09-09T02:25:07;100591.84;;;27.16;45.49
74228;BME280;62587;52.352;5.006;2022-09-09T02:27:33;100587.44;;;27.15;45.83
74228;BME280;62587;52.352;5.006;2022-09-09T02:30:00;100591.00;;;27.15;45.78
74228;BME280;62587;52.352;5.006;2022-09-09T02:32:28;100593.69;;;27.15;45.42
74228;BME280;62587;52.352;5.006;2022-09-09T02:34:59;100591.84;;;27.16;45.69
74228;BME280;62587;52.352;5.006;2022-09-09T02:37:30;100592.81;;;27.15;45.57
74228;BME280;62587;52.352;5.006;2022-09-09T02:39:57;100591.00;;;27.15;45.32
74228;BME280;62587;52.352;5.006;2022-09-09T02:42:22;100602.72;;;27.14;45.49
74228;BME280;62587;52.352;5.006;2022-09-09T02:44:49;100596.50;;;27.14;45.26
74228;BME280;62587;52.352;5.006;2022-09-09T02:47:30;100596.66;;;27.12;45.58
74228;BME280;62587;52.352;5.006;2022-09-09T02:55:23;100585.63;;;27.15;45.25
74228;BME280;62587;52.352;5.006;2022-09-09T02:57:50;100589.28;;;27.14;45.25
74228;BME280;62587;52.352;5.006;2022-09-09T03:00:23;100576.88;;;27.13;45.53
74228;BME280;62587;52.352;5.006;2022-09-09T03:02:49;100585.91;;;27.12;45.45
74228;BME280;62587;52.352;5.006;2022-09-09T03:05:15;100585.91;;;27.12;45.24
74228;BME280;62587;52.352;5.006;2022-09-09T03:07:41;100586.78;;;27.13;45.27
74228;BME280;62587;52.352;5.006;2022-09-09T03:10:07;100592.16;;;27.13;45.52
74228;BME280;62587;52.352;5.006;2022-09-09T03:12:33;100583.22;;;27.12;45.59
74228;BME280;62587;52.352;5.006;2022-09-09T03:14:58;100581.41;;;27.13;45.52
74228;BME280;62587;52.352;5.006;2022-09-09T03:17:24;100581.41;;;27.13;45.58
74228;BME280;62587;52.352;5.006;2022-09-09T03:19:49;100581.41;;;27.13;45.36
74228;BME280;62587;52.352;5.006;2022-09-09T03:22:17;100578.72;;;27.13;45.08
74228;BME280;62587;52.352;5.006;2022-09-09T03:24:42;100577.84;;;27.12;44.86
74228;BME280;62587;52.352;5.006;2022-09-09T03:27:08;100576.16;;;27.11;44.98
74228;BME280;62587;52.352;5.006;2022-09-09T03:29:33;100577.19;;;27.10;45.25
74228;BME280;62587;52.352;5.006;2022-09-09T03:31:59;100581.53;;;27.11;45.16
74228;BME280;62587;52.352;5.006;2022-09-09T03:34:24;100570.78;;;27.11;44.99
74228;BME280;62587;52.352;5.006;2022-09-09T03:36:50;100576.31;;;27.10;45.06
74228;BME280;62587;52.352;5.006;2022-09-09T03:39:15;100568.09;;;27.11;44.88
74228;BME280;62587;52.352;5.006;2022-09-09T03:41:40;100571.81;;;27.10;45.24
74228;BME280;62587;52.352;5.006;2022-09-09T03:44:06;100571.81;;;27.10;45.13
74228;BME280;62587;52.352;5.006;2022-09-09T03:46:31;100561.06;;;27.10;45.24
74228;BME280;62587;52.352;5.006;2022-09-09T03:48:57;100564.72;;;27.09;44.92
74228;BME280;62587;52.352;5.006;2022-09-09T03:51:22;100566.59;;;27.09;45.18
74228;BME280;62587;52.352;5.006;2022-09-09T03:53:47;100576.31;;;27.10;44.83
74228;BME280;62587;52.352;5.006;2022-09-09T03:56:13;100567.41;;;27.09;45.18
74228;BME280;62587;52.352;5.006;2022-09-09T03:58:39;100572.78;;;27.09;44.85
74228;BME280;62587;52.352;5.006;2022-09-09T04:01:13;100566.72;;;27.07;45.17
74228;BME280;62587;52.352;5.006;2022-09-09T04:03:39;100566.72;;;27.07;44.84
74228;BME280;62587;52.352;5.006;2022-09-09T04:06:06;100556.84;;;27.08;45.02
74228;BME280;62587;52.352;5.006;2022-09-09T04:08:33;100559.53;;;27.08;45.02
74228;BME280;62587;52.352;5.006;2022-09-09T04:11:00;100561.34;;;27.07;45.00
74228;BME280;62587;52.352;5.006;2022-09-09T04:13:30;100554.16;;;27.08;44.81
74228;BME280;62587;52.352;5.006;2022-09-09T04:15:57;100555.31;;;27.05;44.93
74228;BME280;62587;52.352;5.006;2022-09-09T04:18:24;100549.75;;;27.07;44.83
74228;BME280;62587;52.352;5.006;2022-09-09T04:20:51;100555.97;;;27.07;44.94
74228;BME280;62587;52.352;5.006;2022-09-09T04:23:17;100555.84;;;27.09;44.80
74228;BME280;62587;52.352;5.006;2022-09-09T04:25:47;100544.38;;;27.07;44.70
74228;BME280;62587;52.352;5.006;2022-09-09T04:28:14;100544.38;;;27.07;44.71
74228;BME280;62587;52.352;5.006;2022-09-09T04:30:40;100539.84;;;27.07;44.76
74228;BME280;62587;52.352;5.006;2022-09-09T04:33:07;100542.84;;;27.04;44.91
74228;BME280;62587;52.352;5.006;2022-09-09T04:35:33;100540.03;;;27.06;44.84
74228;BME280;62587;52.352;5.006;2022-09-09T04:37:59;100540.03;;;27.06;44.60
74228;BME280;62587;52.352;5.006;2022-09-09T04:40:24;100534.78;;;27.04;44.77
74228;BME280;62587;52.352;5.006;2022-09-09T04:42:50;100532.09;;;27.04;44.62
74228;BME280;62587;52.352;5.006;2022-09-09T04:45:16;100530.28;;;27.05;44.80
74228;BME280;62587;52.352;5.006;2022-09-09T04:47:41;100533.97;;;27.04;44.57
74228;BME280;62587;52.352;5.006;2022-09-09T04:50:08;100532.28;;;27.03;44.83
74228;BME280;62587;52.352;5.006;2022-09-09T04:52:34;100534.13;;;27.02;44.86
74228;BME280;62587;52.352;5.006;2022-09-09T04:55:00;100534.13;;;27.02;44.57
74228;BME280;62587;52.352;5.006;2022-09-09T04:57:26;100532.44;;;27.01;44.76
74228;BME280;62587;52.352;5.006;2022-09-09T04:59:51;100530.56;;;27.02;44.58
74228;BME280;62587;52.352;5.006;2022-09-09T05:02:17;100528.06;;;27.00;44.57
74228;BME280;62587;52.352;5.006;2022-09-09T05:04:42;100527.88;;;27.02;44.67
74228;BME280;62587;52.352;5.006;2022-09-09T05:07:07;100528.06;;;27.00;44.39
74228;BME280;62587;52.352;5.006;2022-09-09T05:09:33;100532.28;;;27.03;44.92
74228;BME280;62587;52.352;5.006;2022-09-09T05:11:58;100535.13;;;27.01;44.41
74228;BME280;62587;52.352;5.006;2022-09-09T05:14:24;100531.59;;;27.01;44.58
74228;BME280;62587;52.352;5.006;2022-09-09T05:16:49;100527.22;;;27.00;44.52
74228;BME280;62587;52.352;5.006;2022-09-09T05:19:15;100523.53;;;27.01;44.42
74228;BME280;62587;52.352;5.006;2022-09-09T05:21:40;100522.00;;;26.98;44.52
74228;BME280;62587;52.352;5.006;2022-09-09T05:24:06;100529.75;;;27.01;44.35
74228;BME280;62587;52.352;5.006;2022-09-09T05:26:32;100525.38;;;27.00;44.25
74228;BME280;62587;52.352;5.006;2022-09-09T05:28:57;100526.22;;;27.01;44.42
74228;BME280;62587;52.352;5.006;2022-09-09T05:31:24;100533.44;;;27.00;44.64
74228;BME280;62587;52.352;5.006;2022-09-09T05:33:52;100530.25;;;26.97;44.48
74228;BME280;62587;52.352;5.006;2022-09-09T05:36:20;100526.41;;;26.99;44.50
74228;BME280;62587;52.352;5.006;2022-09-09T05:38:46;100519.16;;;27.00;44.24
74228;BME280;62587;52.352;5.006;2022-09-09T05:41:12;100522.00;;;26.98;44.25
74228;BME280;62587;52.352;5.006;2022-09-09T05:43:40;100521.84;;;27.00;44.42
74228;BME280;62587;52.352;5.006;2022-09-09T05:46:09;100521.84;;;27.00;44.67
74228;BME280;62587;52.352;5.006;2022-09-09T05:48:37;100507.34;;;26.93;44.49
74228;BME280;62587;52.352;5.006;2022-09-09T05:51:04;100508.75;;;26.97;44.37
74228;BME280;62587;52.352;5.006;2022-09-09T05:53:30;100514.94;;;26.97;44.51
74228;BME280;62587;52.352;5.006;2022-09-09T05:56:02;100516.81;;;26.97;44.54
74228;BME280;62587;52.352;5.006;2022-09-09T05:58:32;100520.31;;;26.97;44.63
74228;BME280;62587;52.352;5.006;2022-09-09T06:01:02;100521.84;;;27.00;44.42
74228;BME280;62587;52.352;5.006;2022-09-09T06:03:28;100525.38;;;27.00;44.20
74228;BME280;62587;52.352;5.006;2022-09-09T06:05:58;100523.16;;;26.96;44.61
74228;BME280;62587;52.352;5.006;2022-09-09T06:08:23;100519.50;;;26.97;44.24
74228;BME280;62587;52.352;5.006;2022-09-09T06:10:49;100526.41;;;26.99;44.56
74228;BME280;62587;52.352;5.006;2022-09-09T06:13:14;100524.69;;;26.98;44.30
74228;BME280;62587;52.352;5.006;2022-09-09T06:15:49;100528.06;;;27.00;44.12
74228;BME280;62587;52.352;5.006;2022-09-09T06:18:15;100530.06;;;26.98;44.46
74228;BME280;62587;52.352;5.006;2022-09-09T06:20:43;100527.38;;;26.98;44.21
74228;BME280;62587;52.352;5.006;2022-09-09T06:23:08;100530.25;;;26.97;44.24
74228;BME280;62587;52.352;5.006;2022-09-09T06:25:33;100530.25;;;26.97;44.11
74228;BME280;62587;52.352;5.006;2022-09-09T06:27:59;100526.69;;;26.96;44.04
74228;BME280;62587;52.352;5.006;2022-09-09T06:30:24;100534.59;;;26.98;44.45
74228;BME280;62587;52.352;5.006;2022-09-09T06:32:50;100528.38;;;26.97;44.37
74228;BME280;62587;52.352;5.006;2022-09-09T06:35:16;100531.06;;;26.97;44.14
74228;BME280;62587;52.352;5.006;2022-09-09T06:37:45;100535.44;;;26.98;44.41
74228;BME280;62587;52.352;5.006;2022-09-09T06:40:10;100521.31;;;26.96;44.27
74228;BME280;62587;52.352;5.006;2022-09-09T06:42:36;100525.69;;;26.97;44.12
74228;BME280;62587;52.352;5.006;2022-09-09T06:45:01;100523.00;;;26.97;44.19
74228;BME280;62587;52.352;5.006;2022-09-09T06:47:28;100522.00;;;26.98;44.37
74228;BME280;62587;52.352;5.006;2022-09-09T06:49:53;100524.31;;;26.93;44.41
74228;BME280;62587;52.352;5.006;2022-09-09T06:52:18;100520.97;;;26.91;44.35
74228;BME280;62587;52.352;5.006;2022-09-09T06:54:44;100524.81;;;26.89;44.70
74228;BME280;62587;52.352;5.006;2022-09-09T06:57:10;100531.03;;;26.89;44.50
74228;BME280;62587;52.352;5.006;2022-09-09T06:59:36;100518.94;;;26.93;44.88
74228;BME280;62587;52.352;5.006;2022-09-09T07:02:01;100517.78;;;26.96;44.80
74228;BME280;62587;52.352;5.006;2022-09-09T07:04:26;100520.31;;;26.97;44.52
74228;BME280;62587;52.352;5.006;2022-09-09T07:06:52;100526.06;;;27.02;44.63
74228;BME280;62587;52.352;5.006;2022-09-09T07:09:17;100523.38;;;27.02;44.70
74228;BME280;62587;52.352;5.006;2022-09-09T07:11:48;100521.22;;;27.06;44.36
74228;BME280;62587;52.352;5.006;2022-09-09T07:14:14;100520.06;;;27.08;44.63
74228;BME280;62587;52.352;5.006;2022-09-09T07:16:44;100523.59;;;27.09;44.68
74228;BME280;62587;52.352;5.006;2022-09-09T07:19:10;100520.91;;;27.09;44.28
74228;BME280;62587;52.352;5.006;2022-09-09T07:21:36;100524.28;;;27.11;44.44
74228;BME280;62587;52.352;5.006;2022-09-09T07:24:02;100524.75;;;27.06;44.38
74228;BME280;62587;52.352;5.006;2022-09-09T07:26:29;100524.22;;;27.03;45.11
74228;BME280;62587;52.352;5.006;2022-09-09T07:28:55;100518.84;;;27.03;45.82
74228;BME280;62587;52.352;5.006;2022-09-09T07:31:27;100521.84;;;27.00;46.54
74228;BME280;62587;52.352;5.006;2022-09-09T07:33:53;100514.78;;;26.99;46.51
74228;BME280;62587;52.352;5.006;2022-09-09T07:36:20;100521.31;;;26.96;46.79
74228;BME280;62587;52.352;5.006;2022-09-09T07:38:53;100517.78;;;26.96;47.24
74228;BME280;62587;52.352;5.006;2022-09-09T07:41:27;100518.63;;;26.96;46.79
74228;BME280;62587;52.352;5.006;2022-09-09T07:43:53;100519.13;;;26.92;46.87
74228;BME280;62587;52.352;5.006;2022-09-09T07:46:24;100523.47;;;26.93;47.14
74228;BME280;62587;52.352;5.006;2022-09-09T07:48:55;100522.78;;;26.91;46.95
74228;BME280;62587;52.352;5.006;2022-09-09T07:51:26;100525.78;;;26.88;47.00
74228;BME280;62587;52.352;5.006;2022-09-09T07:53:56;100522.28;;;26.87;47.30
74228;BME280;62587;52.352;5.006;2022-09-09T07:56:23;100523.28;;;26.86;47.42
74228;BME280;62587;52.352;5.006;2022-09-09T07:58:51;100518.06;;;26.85;47.07
74228;BME280;62587;52.352;5.006;2022-09-09T08:01:23;100523.44;;;26.85;46.97
74228;BME280;62587;52.352;5.006;2022-09-09T08:03:54;100520.91;;;26.83;47.25
74228;BME280;62587;52.352;5.006;2022-09-09T08:06:20;100519.91;;;26.84;46.84
74228;BME280;62587;52.352;5.006;2022-09-09T08:08:50;100525.13;;;26.86;46.85
74228;BME280;62587;52.352;5.006;2022-09-09T08:11:16;100526.13;;;26.85;46.84
74228;BME280;62587;52.352;5.006;2022-09-09T08:13:43;100530.78;;;26.83;46.96
74228;BME280;62587;52.352;5.006;2022-09-09T08:16:11;100525.41;;;26.83;46.98
74228;BME280;62587;52.352;5.006;2022-09-09T08:18:37;100517.06;;;26.86;46.67
74228;BME280;62587;52.352;5.006;2022-09-09T08:23:38;100523.81;;;26.90;46.24
74228;BME280;62587;52.352;5.006;2022-09-09T08:26:12;100524.31;;;26.93;46.47
74228;BME280;62587;52.352;5.006;2022-09-09T08:28:39;100532.22;;;26.95;46.55
74228;BME280;62587;52.352;5.006;2022-09-09T08:33:35;100520.09;;;26.91;46.42
74228;BME280;62587;52.352;5.006;2022-09-09T08:36:02;100529.88;;;26.92;46.64
74228;BME280;62587;52.352;5.006;2022-09-09T08:38:28;100516.56;;;26.90;46.48
74228;BME280;62587;52.352;5.006;2022-09-09T08:41:07;100532.69;;;26.90;46.52
74228;BME280;62587;52.352;5.006;2022-09-09T08:43:36;100537.25;;;26.90;46.50
74228;BME280;62587;52.352;5.006;2022-09-09T08:46:26;100527.50;;;26.89;46.76
74228;BME280;62587;52.352;5.006;2022-09-09T08:51:29;100538.25;;;26.89;46.41
74228;BME280;62587;52.352;5.006;2022-09-09T08:53:57;100543.63;;;26.89;46.81
74228;BME280;62587;52.352;5.006;2022-09-09T08:56:24;100541.91;;;26.88;46.40
74228;BME280;62587;52.352;5.006;2022-09-09T08:58:52;100546.28;;;26.89;46.41
74228;BME280;62587;52.352;5.006;2022-09-09T09:01:40;100551.00;;;26.87;46.55
74228;BME280;62587;52.352;5.006;2022-09-09T09:04:11;100547.44;;;26.86;46.80
74228;BME280;62587;52.352;5.006;2022-09-09T09:07:04;100546.59;;;26.86;46.53
74228;BME280;62587;52.352;5.006;2022-09-09T09:12:35;100545.31;;;26.90;46.68
74228;BME280;62587;52.352;5.006;2022-09-09T09:15:02;100544.47;;;26.89;46.51
74228;BME280;62587;52.352;5.006;2022-09-09T09:17:34;100544.28;;;26.91;46.79
74228;BME280;62587;52.352;5.006;2022-09-09T09:20:03;100545.31;;;26.90;46.42
74228;BME280;62587;52.352;5.006;2022-09-09T09:25:34;100546.97;;;26.91;46.33
74228;BME280;62587;52.352;5.006;2022-09-09T09:28:28;100558.19;;;26.86;46.45
74228;BME280;62587;52.352;5.006;2022-09-09T09:31:06;100553.81;;;26.85;46.55
74228;BME280;62587;52.352;5.006;2022-09-09T09:33:50;100551.28;;;26.84;46.79
74228;BME280;62587;52.352;5.006;2022-09-09T09:36:16;100558.50;;;26.83;46.85
74228;BME280;62587;52.352;5.006;2022-09-09T09:38:56;100549.59;;;26.83;46.93
74228;BME280;62587;52.352;5.006;2022-09-09T09:41:35;100566.75;;;26.82;46.87
74228;BME280;62587;52.352;5.006;2022-09-09T09:44:01;100554.28;;;26.81;46.74
74228;BME280;62587;52.352;5.006;2022-09-09T09:46:27;100563.19;;;26.81;46.87
74228;BME280;62587;52.352;5.006;2022-09-09T09:49:05;100560.50;;;26.81;46.71
74228;BME280;62587;52.352;5.006;2022-09-09T09:51:32;100572.09;;;26.82;46.62
74228;BME280;62587;52.352;5.006;2022-09-09T09:56:39;100571.25;;;26.81;46.66
74228;BME280;62587;52.352;5.006;2022-09-09T09:59:05;100555.50;;;26.86;46.60
74228;BME280;62587;52.352;5.006;2022-09-09T10:01:32;100550.13;;;26.86;46.54
74228;BME280;62587;52.352;5.006;2022-09-09T10:04:01;100553.13;;;26.83;46.22
74228;BME280;62587;52.352;5.006;2022-09-09T10:06:35;100549.75;;;26.81;46.46
74228;BME280;62587;52.352;5.006;2022-09-09T10:09:03;100546.78;;;26.84;46.16
74228;BME280;62587;52.352;5.006;2022-09-09T10:11:46;100542.25;;;26.85;46.22
74228;BME280;62587;52.352;5.006;2022-09-09T10:17:43;100548.44;;;26.85;46.05
74228;BME280;62587;52.352;5.006;2022-09-09T10:20:36;100551.97;;;26.86;46.35
74228;BME280;62587;52.352;5.006;2022-09-09T10:23:41;100533.47;;;26.83;46.17
74228;BME280;62587;52.352;5.006;2022-09-09T10:40:33;100548.94;;;27.06;46.01
74228;BME280;62587;52.352;5.006;2022-09-09T10:45:56;100549.44;;;27.10;45.31
74228;BME280;62587;52.352;5.006;2022-09-09T10:53:50;100540.03;;;27.06;45.90
74228;BME280;62587;52.352;5.006;2022-09-09T10:56:20;100535.66;;;27.05;45.81
74228;BME280;62587;52.352;5.006;2022-09-09T10:58:54;100534.47;;;26.99;46.29
74228;BME280;62587;52.352;5.006;2022-09-09T11:01:49;100537.97;;;27.00;46.19
74228;BME280;62587;52.352;5.006;2022-09-09T11:04:41;100535.75;;;26.95;46.44
74228;BME280;62587;52.352;5.006;2022-09-09T11:07:10;100532.38;;;26.93;46.30
74228;BME280;62587;52.352;5.006;2022-09-09T11:09:42;100533.22;;;26.94;46.48
74228;BME280;62587;52.352;5.006;2022-09-09T11:12:18;100536.59;;;26.96;46.33
74228;BME280;62587;52.352;5.006;2022-09-09T11:14:54;100537.13;;;26.99;46.08
74228;BME280;62587;52.352;5.006;2022-09-09T11:17:26;100525.00;;;26.95;46.35
74228;BME280;62587;52.352;5.006;2022-09-09T11:19:55;100531.72;;;26.91;46.32
74228;BME280;62587;52.352;5.006;2022-09-09T11:24:53;100522.97;;;26.89;46.33
74228;BME280;62587;52.352;5.006;2022-09-09T11:27:27;100524.50;;;26.92;46.31
74228;BME280;62587;52.352;5.006;2022-09-09T11:30:05;100526.34;;;26.91;46.47
74228;BME280;62587;52.352;5.006;2022-09-09T11:38:27;100535.72;;;26.87;46.31
74228;BME280;62587;52.352;5.006;2022-09-09T11:40:56;100537.38;;;26.88;46.32
74228;BME280;62587;52.352;5.006;2022-09-09T11:43:29;100524.13;;;26.87;46.47
74228;BME280;62587;52.352;5.006;2022-09-09T11:46:00;100531.03;;;26.89;46.38
74228;BME280;62587;52.352;5.006;2022-09-09T11:48:42;100528.16;;;26.91;46.25
74228;BME280;62587;52.352;5.006;2022-09-09T11:51:32;100536.41;;;26.89;46.71
74228;BME280;62587;52.352;5.006;2022-09-09T11:53:59;100538.41;;;26.87;46.81
74228;BME280;62587;52.352;5.006;2022-09-09T11:56:41;100537.25;;;26.90;46.18
74228;BME280;62587;52.352;5.006;2022-09-09T11:59:24;100534.88;;;26.87;45.64
74228;BME280;62587;52.352;5.006;2022-09-09T12:02:00;100521.63;;;26.93;46.32
74228;BME280;62587;52.352;5.006;2022-09-09T12:05:00;100533.63;;;27.07;45.71
74228;BME280;62587;52.352;5.006;2022-09-09T12:07:35;100541.56;;;27.08;45.72
74228;BME280;62587;52.352;5.006;2022-09-09T12:12:32;100545.97;;;27.17;45.42
74228;BME280;62587;52.352;5.006;2022-09-09T12:17:41;100544.50;;;27.23;45.80
74228;BME280;62587;52.352;5.006;2022-09-09T12:23:28;100526.53;;;27.32;45.70
74228;BME280;62587;52.352;5.006;2022-09-09T12:31:46;100536.25;;;26.30;47.68
74228;BME280;62587;52.352;5.006;2022-09-09T12:39:59;100530.31;;;25.64;49.60
74228;BME280;62587;52.352;5.006;2022-09-09T12:42:28;100526.53;;;25.57;50.08
74228;BME280;62587;52.352;5.006;2022-09-09T12:44:55;100522.78;;;25.50;50.15
74228;BME280;62587;52.352;5.006;2022-09-09T12:47:30;100524.22;;;25.35;50.33
74228;BME280;62587;52.352;5.006;2022-09-09T12:50:00;100523.72;;;25.21;50.42
74228;BME280;62587;52.352;5.006;2022-09-09T12:52:32;100519.38;;;25.11;50.89
74228;BME280;62587;52.352;5.006;2022-09-09T12:55:02;100530.69;;;25.05;50.96
74228;BME280;62587;52.352;5.006;2022-09-09T12:57:31;100542.00;;;24.89;51.07
74228;BME280;62587;52.352;5.006;2022-09-09T13:00:14;100527.66;;;24.81;51.34
74228;BME280;62587;52.352;5.006;2022-09-09T13:02:49;100535.69;;;24.71;51.60
74228;BME280;62587;52.352;5.006;2022-09-09T13:05:19;100533.16;;;24.60;51.89
74228;BME280;62587;52.352;5.006;2022-09-09T13:07:45;100532.03;;;24.43;52.46
74228;BME280;62587;52.352;5.006;2022-09-09T13:10:11;100535.72;;;24.52;52.23
74228;BME280;62587;52.352;5.006;2022-09-09T13:12:37;100536.44;;;24.44;52.53
74228;BME280;62587;52.352;5.006;2022-09-09T13:15:03;100534.00;;;24.51;52.72
74228;BME280;62587;52.352;5.006;2022-09-09T13:17:29;100538.50;;;24.60;52.56
74228;BME280;62587;52.352;5.006;2022-09-09T13:19:55;100542.03;;;24.70;52.54
74228;BME280;62587;52.352;5.006;2022-09-09T13:22:30;100541.16;;;24.70;52.78
74228;BME280;62587;52.352;5.006;2022-09-09T13:27:35;100536.69;;;24.51;54.00
74228;BME280;62587;52.352;5.006;2022-09-09T13:35:55;100527.25;;;24.47;53.29
74228;BME280;62587;52.352;5.006;2022-09-09T13:38:21;100542.91;;;24.42;53.97
74228;BME280;62587;52.352;5.006;2022-09-09T13:43:21;100530.22;;;24.34;54.99
74228;BME280;62587;52.352;5.006;2022-09-09T13:46:03;100538.25;;;24.44;55.02
74228;BME280;62587;52.352;5.006;2022-09-09T13:48:29;100541.06;;;24.42;55.04
74228;BME280;62587;52.352;5.006;2022-09-09T13:51:02;100532.63;;;24.37;55.16
74228;BME280;62587;52.352;5.006;2022-09-09T13:53:29;100537.56;;;24.42;54.94
74228;BME280;62587;52.352;5.006;2022-09-09T13:55:55;100536.16;;;24.47;55.21
74228;BME280;62587;52.352;5.006;2022-09-09T13:58:22;100537.81;;;24.58;55.22
74228;BME280;62587;52.352;5.006;2022-09-09T14:00:48;100533.03;;;24.52;55.28
74228;BME280;62587;52.352;5.006;2022-09-09T14:03:15;100538.66;;;24.49;55.31
74228;BME280;62587;52.352;5.006;2022-09-09T14:05:40;100535.72;;;24.52;55.94
74228;BME280;62587;52.352;5.006;2022-09-09T14:08:10;100535.41;;;24.45;56.00
74228;BME280;62587;52.352;5.006;2022-09-09T14:10:40;100535.72;;;24.52;55.83
74228;BME280;62587;52.352;5.006;2022-09-09T14:13:05;100531.19;;;24.52;56.03
74228;BME280;62587;52.352;5.006;2022-09-09T14:15:31;100525.13;;;24.60;55.69
74228;BME280;62587;52.352;5.006;2022-09-09T14:17:56;100526.41;;;24.56;55.60
74228;BME280;62587;52.352;5.006;2022-09-09T14:20:24;100528.94;;;24.57;55.73
74228;BME280;62587;52.352;5.006;2022-09-09T14:22:49;100527.53;;;24.53;55.49
74228;BME280;62587;52.352;5.006;2022-09-09T14:25:14;100532.19;;;24.51;55.48
74228;BME280;62587;52.352;5.006;2022-09-09T14:27:40;100531.78;;;24.27;55.54
74228;BME280;62587;52.352;5.006;2022-09-09T14:30:06;100525.41;;;24.38;55.39
74228;BME280;62587;52.352;5.006;2022-09-09T14:32:32;100528.41;;;24.35;54.95
74228;BME280;62587;52.352;5.006;2022-09-09T14:34:58;100520.91;;;24.29;55.04
74228;BME280;62587;52.352;5.006;2022-09-09T14:37:23;100527.13;;;24.39;55.30
74228;BME280;62587;52.352;5.006;2022-09-09T14:39:49;100526.41;;;24.46;55.06
74228;BME280;62587;52.352;5.006;2022-09-09T14:42:16;100527.25;;;24.47;55.07
74228;BME280;62587;52.352;5.006;2022-09-09T14:44:41;100526.13;;;24.49;55.08
74228;BME280;62587;52.352;5.006;2022-09-09T14:47:08;100525.13;;;24.41;55.04
74228;BME280;62587;52.352;5.006;2022-09-09T14:49:34;100523.59;;;24.48;55.15
74228;BME280;62587;52.352;5.006;2022-09-09T14:51:59;100521.91;;;24.37;55.15
74228;BME280;62587;52.352;5.006;2022-09-09T14:54:25;100530.06;;;24.45;55.36
74228;BME280;62587;52.352;5.006;2022-09-09T14:56:50;100538.25;;;24.53;55.02